Time;durP1;ratioP1;P1;durP2;ratioP2;P2;SDS_P1;SDS_P2;PMS_P1;PMS_P2;Temp;Humidity;BMP_temperature;BMP_pressure;BME280_temperature;BME280_humidity;BME280_pressure;Samples;Min_cycle;Max_cycle;Signal;HPM_P1;HPM_P2
2023/07/27 00:00:42;;;;;;;;;;;;;;;14.16;70.16;97911.97;5014433;28;19928;-58
2023/07/27 00:03:15;;;;;;;;;;;;;;;14.23;70.22;97910.66;5013925;28;19921;-58
2023/07/27 00:05:45;;;;;;;;;;;;;;;14.24;69.93;97909.53;5011388;28;19926;-58
2023/07/27 00:08:13;;;;;;;;;;;;;;;14.16;70.04;97908.44;5027091;28;20258;-58
2023/07/27 00:10:41;;;;;;;;;;;;;;;14.13;70.04;97909.94;5024000;28;19960;-58
2023/07/27 00:13:09;;;;;;;;;;;;;;;14.08;70.17;97907.41;5026392;28;20404;-59
2023/07/27 00:15:37;;;;;;;;;;;;;;;14.02;70.09;97906.00;5026237;28;19921;-58
2023/07/27 00:18:05;;;;;;;;;;;;;;;13.96;70.13;97904.63;5037403;28;19944;-58
2023/07/27 00:20:34;;;;;;;;;;;;;;;13.81;70.41;97892.34;5014309;28;20275;-59
2023/07/27 00:23:02;;;;;;;;;;;;;;;13.72;70.70;97891.63;5018688;28;20273;-61
2023/07/27 00:25:30;;;;;;;;;;;;;;;13.73;70.81;97906.06;5026010;28;19922;-58
2023/07/27 00:27:58;;;;;;;;;;;;;;;13.72;70.68;97901.72;5029024;28;19932;-60
2023/07/27 00:30:25;;;;;;;;;;;;;;;13.70;70.93;97901.28;5021682;28;19925;-58
2023/07/27 00:32:53;;;;;;;;;;;;;;;13.63;71.06;97897.16;5027870;28;19933;-58
2023/07/27 00:35:21;;;;;;;;;;;;;;;13.56;70.85;97894.13;5034017;28;19983;-58
2023/07/27 00:37:50;;;;;;;;;;;;;;;13.56;71.01;97891.41;5043059;28;19925;-59
2023/07/27 00:40:18;;;;;;;;;;;;;;;13.57;71.15;97895.72;5028686;28;20496;-60
2023/07/27 00:42:46;;;;;;;;;;;;;;;13.67;70.87;97889.06;5023442;28;19925;-60
2023/07/27 00:45:14;;;;;;;;;;;;;;;13.71;70.34;97883.75;5027280;28;19925;-58
2023/07/27 00:47:42;;;;;;;;;;;;;;;13.71;70.35;97879.09;5016212;28;19925;-58
2023/07/27 00:50:10;;;;;;;;;;;;;;;13.60;70.52;97884.16;5021679;28;20387;-58
2023/07/27 00:52:38;;;;;;;;;;;;;;;13.67;70.56;97877.34;5023389;28;19956;-58
2023/07/27 00:55:08;;;;;;;;;;;;;;;13.66;70.28;97883.97;5030243;28;19928;-58
2023/07/27 00:57:35;;;;;;;;;;;;;;;13.69;70.45;97872.34;5029730;28;20002;-58
2023/07/27 01:00:04;;;;;;;;;;;;;;;13.67;70.22;97866.44;5015701;28;19932;-60
2023/07/27 01:02:31;;;;;;;;;;;;;;;13.68;70.19;97868.03;5025333;28;19935;-58
2023/07/27 01:04:59;;;;;;;;;;;;;;;13.65;69.98;97863.25;5037257;28;19953;-58
2023/07/27 01:07:28;;;;;;;;;;;;;;;13.71;69.76;97859.19;5011810;28;20387;-58
2023/07/27 01:09:55;;;;;;;;;;;;;;;13.59;69.98;97860.72;5026145;28;19969;-58
2023/07/27 01:12:26;;;;;;;;;;;;;;;13.67;70.29;97852.78;5024761;28;19925;-58
2023/07/27 01:14:57;;;;;;;;;;;;;;;13.71;69.81;97848.28;5032875;28;19925;-58
2023/07/27 01:17:27;;;;;;;;;;;;;;;13.74;69.64;97850.31;5017705;28;19925;-59
2023/07/27 01:20:01;;;;;;;;;;;;;;;13.72;69.45;97849.84;5023310;28;19926;-58
2023/07/27 01:22:35;;;;;;;;;;;;;;;13.71;69.23;97843.59;5022666;28;19924;-58
2023/07/27 01:25:08;;;;;;;;;;;;;;;13.56;69.48;97847.72;5016738;28;20365;-58
2023/07/27 01:27:54;;;;;;;;;;;;;;;13.58;69.52;97848.22;5032754;28;19925;-58
2023/07/27 01:30:35;;;;;;;;;;;;;;;13.47;69.56;97846.97;5021541;28;19929;-59
2023/07/27 01:33:04;;;;;;;;;;;;;;;13.56;69.56;97853.19;5031531;28;19925;-60
2023/07/27 01:35:33;;;;;;;;;;;;;;;13.60;69.57;97847.88;5026614;28;19925;-59
2023/07/27 01:38:01;;;;;;;;;;;;;;;13.52;69.33;97838.59;5021290;28;19994;-58
2023/07/27 01:40:29;;;;;;;;;;;;;;;13.45;69.49;97838.34;5031939;28;19925;-58
2023/07/27 01:42:56;;;;;;;;;;;;;;;13.41;69.86;97840.13;5029418;28;20333;-58
2023/07/27 01:45:24;;;;;;;;;;;;;;;13.44;70.06;97836.75;5030315;28;19933;-59
2023/07/27 01:47:54;;;;;;;;;;;;;;;13.48;69.85;97842.34;5024228;28;19979;-58
2023/07/27 01:50:22;;;;;;;;;;;;;;;13.36;69.96;97832.91;5022627;28;20309;-58
2023/07/27 01:52:50;;;;;;;;;;;;;;;13.42;69.83;97830.78;5021266;28;19926;-58
2023/07/27 01:55:18;;;;;;;;;;;;;;;13.41;69.95;97828.41;5029488;28;19931;-60
2023/07/27 01:57:45;;;;;;;;;;;;;;;13.23;70.20;97825.81;5021483;28;19926;-58
2023/07/27 02:00:14;;;;;;;;;;;;;;;13.29;70.13;97824.47;5016238;28;19932;-58
2023/07/27 02:02:42;;;;;;;;;;;;;;;13.37;70.14;97822.84;5028385;28;20310;-58
2023/07/27 02:05:12;;;;;;;;;;;;;;;13.36;69.85;97815.75;5026935;28;19932;-58
2023/07/27 02:07:40;;;;;;;;;;;;;;;13.27;70.07;97818.56;5002754;28;20314;-58
2023/07/27 02:10:28;;;;;;;;;;;;;;;13.17;70.55;97813.47;5035074;28;19933;-58
2023/07/27 02:13:18;;;;;;;;;;;;;;;13.28;69.99;97811.16;5029527;28;20263;-58
2023/07/27 02:16:08;;;;;;;;;;;;;;;13.28;70.25;97808.44;5019983;28;19932;-59
2023/07/27 02:18:59;;;;;;;;;;;;;;;13.27;70.26;97809.56;5025284;28;19932;-58
2023/07/27 02:21:49;;;;;;;;;;;;;;;13.25;70.08;97807.16;5021322;28;20012;-58
2023/07/27 02:24:37;;;;;;;;;;;;;;;13.24;70.32;97804.78;5026470;28;20334;-59
2023/07/27 02:27:25;;;;;;;;;;;;;;;13.08;70.89;97805.31;5022714;28;20004;-60
2023/07/27 02:30:13;;;;;;;;;;;;;;;13.26;70.50;97800.59;5035772;28;19933;-58
2023/07/27 02:33:01;;;;;;;;;;;;;;;13.24;70.43;97796.59;5030383;28;19929;-59
2023/07/27 02:35:49;;;;;;;;;;;;;;;13.01;71.27;97793.34;5018801;28;19932;-58
2023/07/27 02:38:39;;;;;;;;;;;;;;;13.17;71.00;97791.63;5045160;28;19931;-58
2023/07/27 02:41:29;;;;;;;;;;;;;;;13.08;70.94;97791.69;5020199;28;19936;-58
2023/07/27 02:44:18;;;;;;;;;;;;;;;13.03;71.36;97786.41;5018912;28;19975;-60
2023/07/27 02:47:06;;;;;;;;;;;;;;;13.02;70.91;97784.03;5018708;28;19929;-59
2023/07/27 02:49:54;;;;;;;;;;;;;;;13.07;70.66;97786.56;5021875;28;19936;-58
2023/07/27 02:52:44;;;;;;;;;;;;;;;13.05;70.84;97784.16;5024112;28;19994;-59
2023/07/27 02:55:33;;;;;;;;;;;;;;;13.03;70.81;97791.88;5026652;28;19936;-58
2023/07/27 02:58:23;;;;;;;;;;;;;;;12.88;71.33;97795.16;5017318;28;20024;-60
2023/07/27 03:01:13;;;;;;;;;;;;;;;13.08;70.79;97791.69;5021703;28;19929;-59
2023/07/27 03:04:02;;;;;;;;;;;;;;;13.10;70.72;97791.34;5009983;28;20012;-58
2023/07/27 03:06:50;;;;;;;;;;;;;;;13.21;70.46;97791.75;5019543;28;19925;-58
2023/07/27 03:09:41;;;;;;;;;;;;;;;12.99;70.65;97788.19;5021375;28;19931;-59
2023/07/27 03:12:30;;;;;;;;;;;;;;;13.02;70.71;97790.28;5020443;28;19926;-58
2023/07/27 03:15:18;;;;;;;;;;;;;;;12.99;70.83;97790.91;5017214;28;19979;-58
2023/07/27 03:18:06;;;;;;;;;;;;;;;13.04;70.38;97790.72;5027962;28;19929;-58
2023/07/27 03:20:56;;;;;;;;;;;;;;;12.93;70.99;97791.44;5021044;28;20027;-59
2023/07/27 03:23:44;;;;;;;;;;;;;;;13.01;70.65;97791.41;5040188;28;20382;-58
2023/07/27 03:26:12;;;;;;;;;;;;;;;13.06;70.57;97791.22;5025613;28;19972;-58
2023/07/27 03:28:42;;;;;;;;;;;;;;;13.04;70.64;97790.72;5016923;28;19925;-58
2023/07/27 03:31:16;;;;;;;;;;;;;;;12.93;70.79;97799.63;5018738;28;19937;-58
2023/07/27 03:33:44;;;;;;;;;;;;;;;12.98;70.79;97788.53;5025033;28;19939;-59
2023/07/27 03:36:13;;;;;;;;;;;;;;;12.99;70.66;97790.13;5023115;28;19926;-58
2023/07/27 03:38:41;;;;;;;;;;;;;;;12.96;70.85;97790.78;5023188;28;19932;-58
2023/07/27 03:41:09;;;;;;;;;;;;;;;12.98;70.98;97791.25;5032254;28;19925;-58
2023/07/27 03:43:37;;;;;;;;;;;;;;;13.04;70.69;97788.00;5013849;28;19926;-58
2023/07/27 03:46:06;;;;;;;;;;;;;;;13.10;70.28;97789.44;5030578;28;19924;-58
2023/07/27 03:48:34;;;;;;;;;;;;;;;13.01;70.75;97791.41;5039181;28;19980;-58
2023/07/27 03:51:02;;;;;;;;;;;;;;;13.07;70.50;97781.91;5022767;28;19929;-58
2023/07/27 03:53:30;;;;;;;;;;;;;;;13.17;70.45;97774.47;5027069;28;19925;-58
2023/07/27 03:56:01;;;;;;;;;;;;;;;13.08;70.71;97774.50;5033184;28;19937;-58
2023/07/27 03:58:29;;;;;;;;;;;;;;;13.07;70.45;97771.00;5028523;28;19933;-59
2023/07/27 04:00:57;;;;;;;;;;;;;;;13.07;70.69;97767.47;5026304;28;20387;-59
2023/07/27 04:03:26;;;;;;;;;;;;;;;13.02;71.05;97768.44;5022267;28;19925;-58
2023/07/27 04:05:54;;;;;;;;;;;;;;;13.08;70.96;97769.84;5011087;28;19929;-58
2023/07/27 04:08:22;;;;;;;;;;;;;;;13.18;70.61;97765.94;5041153;28;20353;-58
2023/07/27 04:10:50;;;;;;;;;;;;;;;13.21;70.61;97761.75;5038240;28;19970;-58
2023/07/27 04:13:18;;;;;;;;;;;;;;;13.17;70.52;97764.34;5021436;28;19991;-59
2023/07/27 04:16:06;;;;;;;;;;;;;;;13.21;70.60;97761.75;5038677;28;19971;-59
2023/07/27 04:18:55;;;;;;;;;;;;;;;13.17;70.55;97772.53;5034569;28;19952;-59
2023/07/27 04:21:43;;;;;;;;;;;;;;;13.23;70.79;97762.25;5015875;28;19972;-58
2023/07/27 04:24:12;;;;;;;;;;;;;;;13.32;70.30;97766.53;5014693;28;19925;-59
2023/07/27 04:26:53;;;;;;;;;;;;;;;13.25;70.66;97763.50;5005957;28;20282;-58
2023/07/27 04:29:41;;;;;;;;;;;;;;;13.32;70.66;97754.81;5020453;28;19959;-59
2023/07/27 04:32:29;;;;;;;;;;;;;;;13.37;70.18;97746.44;5021859;28;20358;-58
2023/07/27 04:35:19;;;;;;;;;;;;;;;13.42;70.56;97754.38;5022244;28;19971;-58
2023/07/27 04:38:10;;;;;;;;;;;;;;;13.40;70.57;97758.59;5027445;28;19925;-58
2023/07/27 04:40:58;;;;;;;;;;;;;;;13.43;70.47;97756.00;5014267;28;19991;-58
2023/07/27 04:43:46;;;;;;;;;;;;;;;13.36;70.52;97758.44;5024322;28;20012;-58
2023/07/27 04:46:34;;;;;;;;;;;;;;;13.39;70.81;97752.34;5033820;28;19933;-59
2023/07/27 04:49:22;;;;;;;;;;;;;;;13.45;70.84;97737.34;5024293;28;19929;-59
2023/07/27 04:52:12;;;;;;;;;;;;;;;13.47;70.81;97734.28;5013344;28;19930;-60
2023/07/27 04:55:00;;;;;;;;;;;;;;;13.55;70.63;97734.22;5016207;28;19929;-59
2023/07/27 04:57:48;;;;;;;;;;;;;;;13.51;70.91;97733.28;5018452;28;20297;-59
2023/07/27 05:00:36;;;;;;;;;;;;;;;13.53;70.93;97728.31;5014777;28;20441;-59
2023/07/27 05:03:24;;;;;;;;;;;;;;;13.51;71.08;97740.69;5013248;28;19930;-59
2023/07/27 05:06:12;;;;;;;;;;;;;;;13.61;70.78;97727.41;5013339;28;20413;-58
2023/07/27 05:09:02;;;;;;;;;;;;;;;13.58;71.59;97725.38;5027170;28;19940;-58
2023/07/27 05:11:50;;;;;;;;;;;;;;;13.65;71.20;97724.81;5013591;28;19929;-57
2023/07/27 05:14:38;;;;;;;;;;;;;;;13.65;71.36;97718.56;5016463;28;19932;-58
2023/07/27 05:17:26;;;;;;;;;;;;;;;13.71;71.35;97718.03;5024864;28;19925;-57
2023/07/27 05:20:16;;;;;;;;;;;;;;;13.83;71.64;97720.00;5014321;28;19932;-57
2023/07/27 05:23:05;;;;;;;;;;;;;;;13.91;71.45;97707.41;5020368;28;19980;-58
2023/07/27 05:25:34;;;;;;;;;;;;;;;13.95;71.29;97711.81;5025753;28;19932;-59
2023/07/27 05:28:03;;;;;;;;;;;;;;;13.91;71.22;97708.19;5032200;28;19929;-60
2023/07/27 05:30:31;;;;;;;;;;;;;;;13.95;71.60;97713.75;5011861;28;19930;-59
2023/07/27 05:33:00;;;;;;;;;;;;;;;14.03;71.71;97715.59;5009048;28;20340;-59
2023/07/27 05:35:29;;;;;;;;;;;;;;;14.08;71.63;97709.94;5016621;28;20019;-58
2023/07/27 05:37:56;;;;;;;;;;;;;;;14.12;71.62;97708.13;5022248;28;19925;-58
2023/07/27 05:40:24;;;;;;;;;;;;;;;14.24;71.29;97710.06;5018142;28;19961;-58
2023/07/27 05:42:53;;;;;;;;;;;;;;;14.26;71.02;97715.97;5018401;28;20673;-58
2023/07/27 05:45:21;;;;;;;;;;;;;;;14.24;71.25;97715.53;5026317;28;19976;-58
2023/07/27 05:47:49;;;;;;;;;;;;;;;14.26;71.15;97711.31;5016328;28;19983;-60
2023/07/27 05:50:17;;;;;;;;;;;;;;;14.29;70.54;97709.84;5017508;28;19929;-58
2023/07/27 05:52:45;;;;;;;;;;;;;;;14.23;70.98;97711.22;5026410;28;19936;-58
2023/07/27 05:55:13;;;;;;;;;;;;;;;14.31;70.85;97708.34;5017222;28;20032;-59
2023/07/27 05:57:41;;;;;;;;;;;;;;;14.35;70.54;97709.28;5019745;28;20620;-59
2023/07/27 06:00:11;;;;;;;;;;;;;;;14.38;71.12;97699.56;5020837;28;19947;-57
2023/07/27 06:02:39;;;;;;;;;;;;;;;14.41;71.18;97707.09;5022528;28;20356;-58
2023/07/27 06:05:07;;;;;;;;;;;;;;;14.41;70.79;97704.38;5019142;28;20003;-58
2023/07/27 06:07:35;;;;;;;;;;;;;;;14.44;71.04;97700.97;5022849;28;19925;-58
2023/07/27 06:10:04;;;;;;;;;;;;;;;14.46;71.01;97701.41;5023135;28;20429;-58
2023/07/27 06:12:32;;;;;;;;;;;;;;;14.52;70.88;97704.75;5028517;28;20393;-58
2023/07/27 06:15:00;;;;;;;;;;;;;;;14.55;70.76;97702.13;5018952;28;19925;-58
2023/07/27 06:17:29;;;;;;;;;;;;;;;14.53;70.76;97698.94;5015830;28;19944;-57
2023/07/27 06:19:57;;;;;;;;;;;;;;;14.57;70.71;97707.25;5015480;28;20011;-57
2023/07/27 06:22:25;;;;;;;;;;;;;;;14.59;70.61;97703.03;5032626;28;19929;-60
2023/07/27 06:24:53;;;;;;;;;;;;;;;14.65;70.51;97696.22;5028728;28;20028;-58
2023/07/27 06:27:21;;;;;;;;;;;;;;;14.62;70.68;97702.34;5019805;28;19929;-58
2023/07/27 06:29:49;;;;;;;;;;;;;;;14.62;70.60;97701.56;5017934;28;19975;-59
2023/07/27 06:32:16;;;;;;;;;;;;;;;14.68;70.79;97700.97;5026605;28;19926;-57
2023/07/27 06:34:46;;;;;;;;;;;;;;;14.76;70.90;97695.75;5030269;28;20279;-58
2023/07/27 06:37:13;;;;;;;;;;;;;;;14.75;70.28;97694.13;5028807;28;19952;-58
2023/07/27 06:39:41;;;;;;;;;;;;;;;14.77;70.44;97695.41;5030920;28;19925;-57
2023/07/27 06:42:09;;;;;;;;;;;;;;;14.81;70.75;97692.78;5011761;28;20385;-57
2023/07/27 06:44:37;;;;;;;;;;;;;;;14.82;70.99;97694.38;5023958;28;19948;-58
2023/07/27 06:47:06;;;;;;;;;;;;;;;14.81;70.89;97699.03;5016379;28;20359;-58
2023/07/27 06:49:34;;;;;;;;;;;;;;;14.87;70.73;97691.41;5031453;28;19925;-58
2023/07/27 06:52:03;;;;;;;;;;;;;;;14.90;70.52;97686.03;5022439;28;20015;-58
2023/07/27 06:54:31;;;;;;;;;;;;;;;14.95;70.84;97685.00;5035461;28;19929;-57
2023/07/27 06:56:59;;;;;;;;;;;;;;;14.98;71.22;97684.31;5036443;28;20393;-58
2023/07/27 06:59:29;;;;;;;;;;;;;;;15.07;71.28;97679.47;5025915;28;20015;-59
2023/07/27 07:01:57;;;;;;;;;;;;;;;15.12;70.75;97681.19;5032536;28;19925;-59
2023/07/27 07:04:25;;;;;;;;;;;;;;;15.11;71.17;97676.84;5025499;28;19930;-58
2023/07/27 07:06:53;;;;;;;;;;;;;;;15.24;71.07;97672.16;5025937;28;19960;-58
2023/07/27 07:09:23;;;;;;;;;;;;;;;15.33;70.82;97668.13;5020439;28;19957;-58
2023/07/27 07:11:51;;;;;;;;;;;;;;;15.39;70.71;97674.94;5025810;28;19932;-58
2023/07/27 07:14:18;;;;;;;;;;;;;;;15.42;70.56;97662.50;5023729;28;19994;-58
2023/07/27 07:16:49;;;;;;;;;;;;;;;15.54;70.37;97669.84;5023832;28;19925;-58
2023/07/27 07:19:16;;;;;;;;;;;;;;;15.56;69.77;97657.41;5027146;28;19935;-58
2023/07/27 07:21:44;;;;;;;;;;;;;;;15.61;70.15;97654.44;5023327;28;19929;-59
2023/07/27 07:24:12;;;;;;;;;;;;;;;15.71;69.80;97662.16;5010553;28;19972;-60
2023/07/27 07:26:41;;;;;;;;;;;;;;;15.68;70.07;97653.84;5016865;28;19925;-58
2023/07/27 07:29:09;;;;;;;;;;;;;;;15.73;69.98;97656.34;5032843;28;19932;-59
2023/07/27 07:31:38;;;;;;;;;;;;;;;15.77;69.93;97661.91;5019758;28;19933;-58
2023/07/27 07:34:05;;;;;;;;;;;;;;;15.79;69.71;97654.13;5027128;28;19925;-58
2023/07/27 07:36:36;;;;;;;;;;;;;;;15.76;69.38;97654.81;5015114;28;19933;-59
2023/07/27 07:39:04;;;;;;;;;;;;;;;15.79;69.56;97654.13;5014622;28;20012;-59
2023/07/27 07:41:34;;;;;;;;;;;;;;;15.79;69.74;97649.44;5024523;28;19964;-58
2023/07/27 07:44:04;;;;;;;;;;;;;;;15.88;69.60;97647.34;5021292;28;19929;-61
2023/07/27 07:46:32;;;;;;;;;;;;;;;15.91;69.89;97651.31;5021385;28;20387;-58
2023/07/27 07:49:00;;;;;;;;;;;;;;;15.96;69.80;97659.25;5020981;28;19925;-58
2023/07/27 07:51:28;;;;;;;;;;;;;;;15.97;69.73;97650.69;5024839;28;19936;-58
2023/07/27 07:53:56;;;;;;;;;;;;;;;15.93;69.14;97649.81;5027254;28;19925;-58
2023/07/27 07:56:24;;;;;;;;;;;;;;;16.00;69.20;97654.69;5031046;28;19951;-58
2023/07/27 07:58:54;;;;;;;;;;;;;;;16.07;68.66;97646.63;5015807;28;19925;-58
2023/07/27 08:01:24;;;;;;;;;;;;;;;16.09;69.04;97649.81;5019047;28;19929;-58
2023/07/27 08:03:52;;;;;;;;;;;;;;;16.13;69.41;97645.22;5020388;28;19936;-58
2023/07/27 08:06:20;;;;;;;;;;;;;;;16.14;69.93;97641.34;5022636;28;19929;-58
2023/07/27 08:08:48;;;;;;;;;;;;;;;16.15;68.77;97644.88;5021014;28;19925;-58
2023/07/27 08:11:16;;;;;;;;;;;;;;;16.15;69.57;97642.94;5017956;28;19972;-58
2023/07/27 08:13:44;;;;;;;;;;;;;;;16.24;70.11;97638.06;5023497;28;19940;-58
2023/07/27 08:16:12;;;;;;;;;;;;;;;16.20;71.50;97634.44;5015429;28;19925;-58
2023/07/27 08:18:44;;;;;;;;;;;;;;;16.26;71.58;97639.66;5019449;28;19925;-58
2023/07/27 08:21:15;;;;;;;;;;;;;;;16.30;72.56;97630.38;5020699;28;19975;-59
2023/07/27 08:23:43;;;;;;;;;;;;;;;16.31;72.47;97639.38;5019577;28;20348;-59
2023/07/27 08:26:12;;;;;;;;;;;;;;;16.32;72.97;97632.75;5028783;28;19925;-58
2023/07/27 08:28:40;;;;;;;;;;;;;;;16.31;73.09;97636.66;5018795;28;19931;-58
2023/07/27 08:31:08;;;;;;;;;;;;;;;16.33;73.02;97640.59;5023571;28;19959;-58
2023/07/27 08:33:36;;;;;;;;;;;;;;;16.36;72.99;97644.59;5017586;28;20017;-58
2023/07/27 08:36:07;;;;;;;;;;;;;;;16.34;72.99;97642.19;5018080;28;19968;-58
2023/07/27 08:38:34;;;;;;;;;;;;;;;16.38;73.13;97647.78;5013434;28;20003;-60
2023/07/27 08:41:07;;;;;;;;;;;;;;;16.37;73.30;97646.97;5012797;28;20392;-58
2023/07/27 08:43:36;;;;;;;;;;;;;;;16.35;73.82;97648.47;5022628;28;20010;-58
2023/07/27 08:46:04;;;;;;;;;;;;;;;16.33;74.42;97640.59;5051304;28;19931;-58
2023/07/27 08:48:32;;;;;;;;;;;;;;;16.38;74.33;97639.53;5013184;28;19938;-58
2023/07/27 08:51:00;;;;;;;;;;;;;;;16.38;74.61;97647.78;5020309;28;19983;-58
2023/07/27 08:53:31;;;;;;;;;;;;;;;16.42;74.32;97643.16;5019059;28;20020;-59
2023/07/27 08:55:59;;;;;;;;;;;;;;;16.40;75.21;97639.97;5032835;28;19983;-57
2023/07/27 08:58:27;;;;;;;;;;;;;;;16.43;75.01;97644.75;5023462;28;19925;-58
2023/07/27 09:00:56;;;;;;;;;;;;;;;16.45;75.36;97631.47;5013279;28;19932;-58
2023/07/27 09:03:24;;;;;;;;;;;;;;;16.48;74.83;97628.81;5028114;28;19928;-59
2023/07/27 09:05:59;;;;;;;;;;;;;;;16.48;75.68;97633.50;5024147;28;20373;-58
2023/07/27 09:08:28;;;;;;;;;;;;;;;16.49;75.31;97624.94;5021347;28;19957;-58
2023/07/27 09:11:04;;;;;;;;;;;;;;;16.52;75.65;97628.13;5021729;28;19941;-60
2023/07/27 09:13:33;;;;;;;;;;;;;;;16.53;76.20;97624.22;5039215;28;19932;-58
2023/07/27 09:16:02;;;;;;;;;;;;;;;16.55;76.01;97630.94;5024901;28;20397;-58
2023/07/27 09:18:34;;;;;;;;;;;;;;;16.57;75.93;97623.16;5018322;28;19925;-58
2023/07/27 09:21:06;;;;;;;;;;;;;;;16.61;75.91;97628.69;5009190;28;20307;-63
2023/07/27 09:23:35;;;;;;;;;;;;;;;16.58;75.83;97612.97;5019128;28;19932;-58
2023/07/27 09:26:06;;;;;;;;;;;;;;;16.56;76.09;97609.78;5027232;28;19929;-58
2023/07/27 09:28:35;;;;;;;;;;;;;;;16.57;76.36;97606.69;5016472;28;20529;-58
2023/07/27 09:31:06;;;;;;;;;;;;;;;16.59;76.47;97614.56;5015677;28;19949;-59
2023/07/27 09:33:35;;;;;;;;;;;;;;;16.61;76.80;97601.28;5027816;28;20015;-59
2023/07/27 09:36:06;;;;;;;;;;;;;;;16.69;76.27;97608.53;5009213;28;19929;-60
2023/07/27 09:38:34;;;;;;;;;;;;;;;16.69;76.49;97611.25;5015743;28;19929;-58
2023/07/27 09:41:08;;;;;;;;;;;;;;;16.63;75.53;97609.97;5023933;28;20031;-60
2023/07/27 09:43:38;;;;;;;;;;;;;;;16.71;76.16;97607.03;5021858;28;21438;-58
2023/07/27 09:46:07;;;;;;;;;;;;;;;16.74;75.76;97609.06;5026934;28;20340;-58
2023/07/27 09:48:35;;;;;;;;;;;;;;;16.75;76.00;97610.66;5020983;28;19929;-58
2023/07/27 09:51:06;;;;;;;;;;;;;;;16.73;76.22;97602.00;5025188;28;20378;-59
2023/07/27 09:53:35;;;;;;;;;;;;;;;16.76;76.67;97604.00;5031502;28;19929;-58
2023/07/27 09:56:04;;;;;;;;;;;;;;;16.81;76.13;97602.13;5020968;28;20286;-59
2023/07/27 09:58:33;;;;;;;;;;;;;;;16.81;76.18;97594.69;5021218;28;20378;-59
2023/07/27 10:01:02;;;;;;;;;;;;;;;16.80;76.72;97590.38;5026173;28;20337;-60
2023/07/27 10:03:30;;;;;;;;;;;;;;;16.81;76.74;97593.91;5021140;28;19932;-57
2023/07/27 10:05:59;;;;;;;;;;;;;;;16.81;76.44;97582.94;5013715;28;19972;-59
2023/07/27 10:08:28;;;;;;;;;;;;;;;16.79;75.45;97588.00;5018490;28;19929;-58
2023/07/27 10:10:57;;;;;;;;;;;;;;;16.80;75.18;97581.34;5018608;28;19929;-58
2023/07/27 10:13:39;;;;;;;;;;;;;;;16.85;75.22;97578.31;5024638;28;20347;-59
2023/07/27 10:16:08;;;;;;;;;;;;;;;16.86;75.59;97561.50;5023138;28;20376;-58
2023/07/27 10:18:39;;;;;;;;;;;;;;;16.92;75.78;97562.00;5030153;28;19940;-58
2023/07/27 10:21:21;;;;;;;;;;;;;;;16.88;75.13;97555.63;5031062;28;19979;-58
2023/07/27 10:23:52;;;;;;;;;;;;;;;16.94;76.02;97554.22;5018164;28;19954;-58
2023/07/27 10:26:20;;;;;;;;;;;;;;;16.97;76.16;97547.97;5029923;28;20362;-58
2023/07/27 10:28:49;;;;;;;;;;;;;;;16.94;74.63;97541.28;5018247;28;19967;-58
2023/07/27 10:31:23;;;;;;;;;;;;;;;16.98;74.41;97538.59;5017489;28;19930;-59
2023/07/27 10:33:55;;;;;;;;;;;;;;;17.06;74.20;97545.81;5033536;28;19933;-58
2023/07/27 10:36:48;;;;;;;;;;;;;;;17.06;74.69;97545.03;5036756;28;20365;-58
2023/07/27 10:39:17;;;;;;;;;;;;;;;17.09;74.35;97549.78;5021878;28;19926;-59
2023/07/27 10:41:57;;;;;;;;;;;;;;;17.09;74.14;97541.53;5015980;28;20382;-59
2023/07/27 10:44:27;;;;;;;;;;;;;;;17.12;74.38;97549.84;5020947;28;19933;-59
2023/07/27 10:46:56;;;;;;;;;;;;;;;17.11;74.67;97537.28;5016060;28;19971;-59
2023/07/27 10:49:23;;;;;;;;;;;;;;;17.13;74.52;97540.47;5020024;28;20020;-59
2023/07/27 10:51:55;;;;;;;;;;;;;;;17.15;74.55;97538.16;5020348;28;19925;-59
2023/07/27 10:54:25;;;;;;;;;;;;;;;17.15;74.62;97537.34;5015713;28;20334;-59
2023/07/27 10:56:52;;;;;;;;;;;;;;;17.18;74.97;97534.69;5014164;28;19929;-59
2023/07/27 10:59:20;;;;;;;;;;;;;;;17.21;75.24;97522.97;5018436;28;20006;-58
2023/07/27 11:01:49;;;;;;;;;;;;;;;17.24;75.01;97524.97;5027335;28;19999;-60
2023/07/27 11:04:17;;;;;;;;;;;;;;;17.26;75.26;97522.69;5021900;28;19925;-58
2023/07/27 11:06:46;;;;;;;;;;;;;;;17.31;75.29;97512.53;5025069;28;19929;-60
2023/07/27 11:09:14;;;;;;;;;;;;;;;17.36;75.19;97520.47;5026627;28;19925;-58
2023/07/27 11:11:42;;;;;;;;;;;;;;;17.34;75.08;97511.81;5036426;28;19937;-59
2023/07/27 11:14:10;;;;;;;;;;;;;;;17.36;75.32;97504.78;5023761;28;19935;-58
2023/07/27 11:16:38;;;;;;;;;;;;;;;17.36;75.61;97501.25;5027021;28;20443;-59
2023/07/27 11:19:08;;;;;;;;;;;;;;;17.41;75.49;97500.94;5013442;28;19929;-59
2023/07/27 11:21:38;;;;;;;;;;;;;;;17.44;75.70;97505.72;5020608;28;19933;-59
2023/07/27 11:24:06;;;;;;;;;;;;;;;17.50;75.26;97498.75;5019294;28;19928;-59
2023/07/27 11:26:34;;;;;;;;;;;;;;;17.52;75.60;97489.00;5020695;28;20007;-59
2023/07/27 11:29:03;;;;;;;;;;;;;;;17.56;74.41;97489.06;5028648;28;19933;-62
2023/07/27 11:31:31;;;;;;;;;;;;;;;17.56;73.14;97480.81;5021518;28;19994;-60
2023/07/27 11:33:58;;;;;;;;;;;;;;;17.57;73.33;97481.59;5013623;28;19926;-60
2023/07/27 11:36:31;;;;;;;;;;;;;;;17.58;72.86;97484.00;5020978;28;19925;-59
2023/07/27 11:38:59;;;;;;;;;;;;;;;17.63;72.54;97478.19;5015752;28;19932;-59
2023/07/27 11:41:28;;;;;;;;;;;;;;;17.66;70.91;97482.94;5015637;28;20365;-59
2023/07/27 11:43:59;;;;;;;;;;;;;;;17.60;68.39;97481.66;5021111;28;19929;-59
2023/07/27 11:46:28;;;;;;;;;;;;;;;17.52;67.04;97489.00;5024238;28;19972;-58
2023/07/27 11:48:57;;;;;;;;;;;;;;;17.45;67.56;97490.81;5014432;28;19925;-59
2023/07/27 11:51:34;;;;;;;;;;;;;;;17.36;67.91;97504.00;5022288;28;19925;-59
2023/07/27 11:54:02;;;;;;;;;;;;;;;17.26;68.83;97500.72;5026730;28;19937;-61
2023/07/27 11:56:33;;;;;;;;;;;;;;;17.19;69.56;97506.06;5024841;28;19925;-58
2023/07/27 11:59:02;;;;;;;;;;;;;;;17.21;71.38;97498.28;5022927;28;20020;-60
2023/07/27 12:01:29;;;;;;;;;;;;;;;17.10;72.34;97497.28;5028141;28;19925;-59
2023/07/27 12:03:57;;;;;;;;;;;;;;;17.09;72.42;97490.19;5015750;28;19945;-58
2023/07/27 12:06:25;;;;;;;;;;;;;;;17.09;73.66;97484.69;5016939;28;20368;-59
2023/07/27 12:08:55;;;;;;;;;;;;;;;17.02;75.69;97488.13;5042921;28;19932;-59
2023/07/27 12:11:26;;;;;;;;;;;;;;;17.04;75.46;97476.75;5017358;28;20464;-59
2023/07/27 12:13:57;;;;;;;;;;;;;;;17.07;75.82;97486.22;5013097;28;19925;-58
2023/07/27 12:16:26;;;;;;;;;;;;;;;17.00;76.10;97493.19;5014590;28;19930;-59
2023/07/27 12:19:16;;;;;;;;;;;;;;;16.97;76.58;97482.13;5016314;28;19953;-59
2023/07/27 12:21:49;;;;;;;;;;;;;;;16.91;77.72;97489.88;5013593;28;20371;-58
2023/07/27 12:24:23;;;;;;;;;;;;;;;16.84;77.58;97491.69;5017813;28;19932;-59
2023/07/27 12:26:53;;;;;;;;;;;;;;;16.79;78.22;97481.00;5019107;28;19937;-58
2023/07/27 12:29:24;;;;;;;;;;;;;;;16.71;78.63;97472.63;5020565;28;20282;-58
2023/07/27 12:31:55;;;;;;;;;;;;;;;16.82;79.26;97472.03;5007025;28;19936;-59
2023/07/27 12:34:25;;;;;;;;;;;;;;;16.79;78.37;97464.53;5016155;28;20343;-59
2023/07/27 12:36:56;;;;;;;;;;;;;;;16.85;78.79;97457.59;5011433;28;20002;-59
2023/07/27 12:39:28;;;;;;;;;;;;;;;16.86;79.21;97442.72;5010604;28;20462;-59
2023/07/27 12:41:56;;;;;;;;;;;;;;;16.83;79.94;97444.25;5035149;28;20290;-58
2023/07/27 12:44:27;;;;;;;;;;;;;;;16.82;80.23;97452.84;5023018;28;19925;-58
2023/07/27 12:46:54;;;;;;;;;;;;;;;16.75;80.24;97451.53;5009919;28;19938;-58
2023/07/27 12:49:22;;;;;;;;;;;;;;;16.74;80.41;97458.19;5020196;28;19933;-58
2023/07/27 12:51:51;;;;;;;;;;;;;;;16.76;80.56;97450.38;5018161;28;20557;-59
2023/07/27 12:54:19;;;;;;;;;;;;;;;16.81;80.20;97454.00;5018617;28;20009;-59
2023/07/27 12:56:48;;;;;;;;;;;;;;;16.85;80.22;97446.63;5019019;28;19949;-59
2023/07/27 12:59:19;;;;;;;;;;;;;;;16.77;80.59;97445.69;5017146;28;19929;-58
2023/07/27 13:01:47;;;;;;;;;;;;;;;16.85;80.47;97455.66;5013977;28;19930;-58
2023/07/27 13:04:15;;;;;;;;;;;;;;;16.85;80.26;97449.38;5014427;28;20129;-58
2023/07/27 13:06:43;;;;;;;;;;;;;;;16.90;80.35;97438.91;5014597;28;19933;-58
2023/07/27 13:09:11;;;;;;;;;;;;;;;16.93;80.73;97437.34;5022196;28;19978;-58
2023/07/27 13:11:39;;;;;;;;;;;;;;;16.95;81.02;97429.56;5013432;28;19976;-58
2023/07/27 13:14:08;;;;;;;;;;;;;;;16.92;81.05;97431.06;5026786;28;19932;-58